createdAt,value
2016-05-15T00:01:31.127Z,0
2016-05-15T00:02:30.848Z,0
2016-05-15T00:03:31.039Z,0
2016-05-15T00:04:45.230Z,0
2016-05-15T00:05:30.747Z,0
2016-05-15T00:06:45.282Z,0
2016-05-15T00:07:31.112Z,0
2016-05-15T00:08:31.114Z,0
2016-05-15T00:09:31.289Z,0
2016-05-15T00:11:31.342Z,0
2016-05-15T00:12:31.360Z,0
2016-05-15T00:13:31.393Z,0
2016-05-15T00:15:45.462Z,0
2016-05-15T00:16:59.823Z,0
2016-05-15T00:17:31.467Z,0
2016-05-15T00:18:31.329Z,0
2016-05-15T00:20:31.381Z,0
2016-05-15T00:21:31.556Z,0
2016-05-15T00:22:31.589Z,0
2016-05-15T00:23:31.609Z,0
2016-05-15T00:24:31.611Z,0
2016-05-15T00:25:31.630Z,0
2016-05-15T00:26:45.835Z,0
2016-05-15T00:27:31.369Z,0
2016-05-15T00:28:31.699Z,0
2016-05-15T00:29:45.905Z,0
2016-05-15T00:30:45.924Z,0
2016-05-15T00:31:31.474Z,0
2016-05-15T00:32:45.820Z,0
2016-05-15T00:33:31.713Z,0
2016-05-15T00:34:31.982Z,0
2016-05-15T00:35:31.843Z,0
2016-05-15T00:36:31.862Z,0
2016-05-15T00:37:31.880Z,0
2016-05-15T00:38:31.585Z,0
2016-05-15T00:39:31.776Z,0
2016-05-15T00:41:31.812Z,0
2016-05-15T00:43:00.206Z,0
2016-05-15T00:43:32.006Z,0
2016-05-15T00:45:32.058Z,0
2016-05-15T00:46:32.076Z,0
2016-05-15T00:47:32.095Z,0
2016-05-15T00:49:32.804Z,0
2016-05-15T00:50:32.150Z,0
2016-05-15T00:51:32.028Z,0
2016-05-15T00:52:46.077Z,0
2016-05-15T00:53:32.220Z,0
2016-05-15T00:54:32.222Z,0
2016-05-15T00:55:32.100Z,0
2016-05-15T00:56:46.463Z,0
2016-05-15T00:57:32.309Z,0
2016-05-15T00:58:46.514Z,0
2016-05-15T00:59:32.330Z,0
2016-05-15T01:00:32.224Z,0
2016-05-15T01:01:32.366Z,0
2016-05-15T01:02:32.400Z,0
2016-05-15T01:03:52.028Z,0
2016-05-15T01:04:46.516Z,0
2016-05-15T01:05:32.471Z,0
2016-05-15T01:06:46.536Z,0
2016-05-15T01:07:46.555Z,0
2016-05-15T01:08:32.557Z,0
2016-05-15T01:09:32.560Z,0
2016-05-15T01:10:32.579Z,0
2016-05-15T01:11:46.785Z,0
2016-05-15T01:12:32.631Z,0
2016-05-15T01:13:46.837Z,0
2016-05-15T01:14:46.854Z,0
2016-05-15T01:15:32.529Z,0
2016-05-15T01:17:01.079Z,0
2016-05-15T01:17:32.581Z,0
2016-05-15T01:18:32.787Z,0
2016-05-15T01:19:46.946Z,0
2016-05-15T01:20:32.792Z,0
2016-05-15T01:21:32.656Z,0
2016-05-15T01:22:32.829Z,0
2016-05-15T01:23:32.864Z,0
2016-05-15T01:24:32.866Z,0
2016-05-15T01:25:47.103Z,0
2016-05-15T01:26:32.919Z,0
2016-05-15T01:27:32.467Z,0
2016-05-15T01:28:47.142Z,0
2016-05-15T01:29:32.973Z,0
2016-05-15T01:30:33.007Z,0
2016-05-15T01:31:33.025Z,0
2016-05-15T01:32:33.044Z,0
2016-05-15T01:33:47.109Z,0
2016-05-15T01:34:47.346Z,0
2016-05-15T01:35:32.943Z,0
2016-05-15T01:37:33.151Z,0
2016-05-15T01:38:33.169Z,0
2016-05-15T01:39:33.188Z,0
2016-05-15T01:40:33.206Z,0
2016-05-15T01:41:33.084Z,0
2016-05-15T01:42:47.429Z,0
2016-05-15T01:43:47.464Z,0
2016-05-15T01:44:33.295Z,0
2016-05-15T01:45:47.344Z,0
2016-05-15T01:46:47.518Z,0
2016-05-15T01:47:33.365Z,0
2016-05-15T01:48:33.259Z,0
2016-05-15T01:49:33.715Z,0
2016-05-15T01:50:33.436Z,0
2016-05-15T01:51:47.626Z,0
2016-05-15T01:52:47.331Z,0
2016-05-15T01:53:33.320Z,0
2016-05-15T01:54:33.509Z,0
2016-05-15T01:55:47.559Z,0
2016-05-15T01:56:33.389Z,0
2016-05-15T01:57:33.564Z,0
2016-05-15T01:59:01.958Z,0
2016-05-15T01:59:47.475Z,0
2016-05-15T02:00:33.463Z,0
2016-05-15T02:01:47.841Z,0
2016-05-15T02:02:33.531Z,0
2016-05-15T02:03:33.986Z,0
2016-05-15T02:04:33.396Z,0
2016-05-15T02:05:33.741Z,0
2016-05-15T02:06:33.744Z,0
2016-05-15T02:07:47.794Z,0
2016-05-15T02:08:33.640Z,0
2016-05-15T02:09:33.660Z,0
2016-05-15T02:11:48.274Z,0
2016-05-15T02:12:33.885Z,0
2016-05-15T02:13:48.077Z,0
2016-05-15T02:14:48.110Z,0
2016-05-15T02:15:33.940Z,0
2016-05-15T02:16:47.991Z,0
2016-05-15T02:17:33.977Z,0
2016-05-15T02:18:34.011Z,0
2016-05-15T02:19:33.874Z,0
2016-05-15T02:20:48.282Z,0
2016-05-15T02:21:34.067Z,0
2016-05-15T02:22:34.084Z,0
2016-05-15T02:23:48.290Z,0
2016-05-15T02:24:34.121Z,0
2016-05-15T02:25:34.155Z,0
2016-05-15T02:27:34.192Z,0
2016-05-15T02:30:48.466Z,0
2016-05-15T02:31:34.124Z,0
2016-05-15T02:32:34.300Z,0
2016-05-15T02:33:34.708Z,0
2016-05-15T02:34:34.741Z,0
2016-05-15T02:35:34.197Z,0
2016-05-15T02:36:34.232Z,0
2016-05-15T02:37:34.391Z,0
2016-05-15T02:38:48.596Z,0
2016-05-15T02:40:34.305Z,0
2016-05-15T02:41:34.323Z,0
2016-05-15T02:42:34.513Z,0
2016-05-15T02:43:34.532Z,0
2016-05-15T02:44:34.550Z,0
2016-05-15T02:45:48.740Z,0
2016-05-15T02:46:48.618Z,0
2016-05-15T02:47:34.448Z,0
2016-05-15T02:48:34.482Z,0
2016-05-15T02:50:34.675Z,0
2016-05-15T02:51:34.523Z,0
2016-05-15T02:52:34.556Z,0
2016-05-15T02:53:34.730Z,0
2016-05-15T02:54:48.920Z,0
2016-05-15T02:55:48.970Z,0
2016-05-15T02:56:34.645Z,0
2016-05-15T02:57:34.803Z,0
2016-05-15T02:58:34.526Z,0
2016-05-15T02:59:34.856Z,0
2016-05-15T03:00:34.874Z,0
2016-05-15T03:01:34.908Z,0
2016-05-15T03:02:34.927Z,0
2016-05-15T03:03:35.288Z,0
2016-05-15T03:04:34.994Z,0
2016-05-15T03:05:34.981Z,0
2016-05-15T03:06:35.016Z,0
2016-05-15T03:07:35.018Z,0
2016-05-15T03:08:35.036Z,0
2016-05-15T03:09:35.055Z,0
2016-05-15T03:11:35.107Z,0
2016-05-15T03:12:49.157Z,0
2016-05-15T03:13:35.128Z,0
2016-05-15T03:14:35.162Z,0
2016-05-15T03:15:35.024Z,0
2016-05-15T03:16:49.261Z,0
2016-05-15T03:17:35.232Z,0
2016-05-15T03:18:35.579Z,0
2016-05-15T03:19:36.112Z,0
2016-05-15T03:20:35.288Z,0
2016-05-15T03:21:35.321Z,5
2016-05-15T03:22:35.167Z,5
2016-05-15T03:23:35.359Z,5
2016-05-15T03:24:35.376Z,5
2016-05-15T03:25:35.394Z,5
2016-05-15T03:29:35.483Z,5
2016-05-15T03:30:35.486Z,5
2016-05-15T03:31:35.364Z,5
2016-05-15T03:32:35.366Z,5
2016-05-15T03:33:35.572Z,5
2016-05-15T03:34:35.528Z,5
2016-05-15T03:35:35.297Z,5
2016-05-15T03:36:35.314Z,5
2016-05-15T03:37:35.661Z,5
2016-05-15T03:39:04.024Z,5
2016-05-15T03:39:35.526Z,10
2016-05-15T03:40:49.888Z,10
2016-05-15T03:41:35.735Z,15
2016-05-15T03:42:49.925Z,20
2016-05-15T03:43:49.943Z,20
2016-05-15T03:44:35.789Z,20
2016-05-15T03:45:35.808Z,20
2016-05-15T03:46:50.013Z,20
2016-05-15T03:47:35.859Z,15
2016-05-15T03:48:35.816Z,15
2016-05-15T03:50:50.102Z,15
2016-05-15T03:51:50.120Z,15
2016-05-15T03:52:50.140Z,15
2016-05-15T03:53:50.157Z,15
2016-05-15T03:54:35.831Z,15
2016-05-15T03:55:36.007Z,15
2016-05-15T03:56:36.025Z,15
2016-05-15T03:57:35.903Z,15
2016-05-15T03:58:50.248Z,15
2016-05-15T03:59:35.939Z,15
2016-05-15T04:00:35.958Z,10
2016-05-15T04:01:36.006Z,10
2016-05-15T04:02:36.166Z,5
2016-05-15T04:03:36.184Z,5
2016-05-15T04:04:35.922Z,10
2016-05-15T04:05:36.221Z,10
2016-05-15T04:06:36.083Z,5
2016-05-15T04:07:36.289Z,5
2016-05-15T04:08:50.307Z,10
2016-05-15T04:09:36.138Z,10
2016-05-15T04:11:36.331Z,15
2016-05-15T04:12:36.365Z,15
2016-05-15T04:13:36.226Z,15
2016-05-15T04:14:50.574Z,10
2016-05-15T04:15:36.419Z,10
2016-05-15T04:16:36.296Z,10
2016-05-15T04:17:36.457Z,10
2016-05-15T04:18:36.177Z,15
2016-05-15T04:19:37.118Z,15
2016-05-15T04:20:36.527Z,15
2016-05-15T04:21:36.390Z,20
2016-05-15T04:22:36.423Z,30
2016-05-15T04:23:36.597Z,35
2016-05-15T04:24:36.460Z,40
2016-05-15T04:25:36.478Z,40
2016-05-15T04:26:36.653Z,40
2016-05-15T04:27:36.670Z,40
2016-05-15T04:28:36.704Z,40
2016-05-15T04:29:50.895Z,40
2016-05-15T04:30:36.725Z,35
2016-05-15T04:31:36.759Z,30
2016-05-15T04:32:36.465Z,30
2016-05-15T04:33:36.797Z,25
2016-05-15T04:34:37.033Z,20
2016-05-15T04:36:05.208Z,20
2016-05-15T04:36:36.867Z,15
2016-05-15T04:37:36.728Z,15
2016-05-15T04:38:36.747Z,15
2016-05-15T04:39:36.781Z,15
2016-05-15T04:40:50.971Z,15
2016-05-15T04:41:36.989Z,15
2016-05-15T04:42:36.836Z,20
2016-05-15T04:43:36.994Z,20
2016-05-15T04:45:36.890Z,15
2016-05-15T04:46:36.910Z,15
2016-05-15T04:47:37.084Z,15
2016-05-15T04:48:37.102Z,15
2016-05-15T04:49:37.215Z,15
2016-05-15T04:50:37.138Z,10
2016-05-15T04:52:37.191Z,15
2016-05-15T04:53:37.053Z,15
2016-05-15T04:54:36.915Z,20
2016-05-15T04:55:37.090Z,20
2016-05-15T04:56:37.280Z,20
2016-05-15T04:58:37.004Z,25
2016-05-15T04:59:37.178Z,35
2016-05-15T05:00:37.353Z,35
2016-05-15T05:01:51.559Z,30
2016-05-15T05:02:37.389Z,25
2016-05-15T05:03:37.424Z,25
2016-05-15T05:04:37.286Z,20
2016-05-15T05:05:37.475Z,20
2016-05-15T05:06:37.339Z,25
2016-05-15T05:07:37.513Z,25
2016-05-15T05:08:37.515Z,25
2016-05-15T05:09:37.237Z,25
2016-05-15T05:10:51.739Z,25
2016-05-15T05:11:37.430Z,20
2016-05-15T05:12:37.635Z,20
2016-05-15T05:13:37.497Z,20
2016-05-15T05:14:37.641Z,25
2016-05-15T05:16:37.693Z,40
2016-05-15T05:17:51.883Z,45
2016-05-15T05:18:37.558Z,50
2016-05-15T05:19:38.185Z,50
2016-05-15T05:20:37.798Z,55
2016-05-15T05:21:37.785Z,55
2016-05-15T05:22:37.662Z,65
2016-05-15T05:23:37.837Z,55
2016-05-15T05:24:52.026Z,60
2016-05-15T05:25:52.046Z,65
2016-05-15T05:27:37.753Z,65
2016-05-15T05:28:52.116Z,65
2016-05-15T05:29:37.806Z,65
2016-05-15T05:31:37.842Z,65
2016-05-15T05:32:38.002Z,60
2016-05-15T05:33:52.208Z,45
2016-05-15T05:34:37.913Z,50
2016-05-15T05:35:38.104Z,60
2016-05-15T05:36:38.106Z,65
2016-05-15T05:37:38.108Z,70
2016-05-15T05:38:38.127Z,70
2016-05-15T05:39:38.005Z,60
2016-05-15T05:40:38.195Z,55
2016-05-15T05:41:38.197Z,55
2016-05-15T05:42:38.075Z,60
2016-05-15T05:43:38.078Z,105
2016-05-15T05:44:38.252Z,75
2016-05-15T05:45:38.286Z,65
2016-05-15T05:46:38.321Z,65
2016-05-15T05:50:06.735Z,75
2016-05-15T05:50:38.394Z,70
2016-05-15T05:51:38.256Z,75
2016-05-15T05:52:38.415Z,100
2016-05-15T05:53:38.449Z,95
2016-05-15T05:54:38.482Z,75
2016-05-15T05:55:38.517Z,65
2016-05-15T05:56:38.520Z,65
2016-05-15T05:57:38.537Z,90
2016-05-15T05:58:38.400Z,85
2016-05-15T05:59:38.589Z,75
2016-05-15T06:00:38.593Z,90
2016-05-15T06:01:38.611Z,120
2016-05-15T06:02:38.176Z,120
2016-05-15T06:03:38.664Z,110
2016-05-15T06:04:52.869Z,90
2016-05-15T06:05:38.700Z,95
2016-05-15T06:06:38.718Z,100
2016-05-15T06:07:38.595Z,80
2016-05-15T06:08:52.958Z,75
2016-05-15T06:09:52.975Z,80
2016-05-15T06:10:38.651Z,85
2016-05-15T06:11:38.825Z,95
2016-05-15T06:12:38.844Z,105
2016-05-15T06:13:38.549Z,110
2016-05-15T06:14:53.068Z,100
2016-05-15T06:15:38.930Z,105
2016-05-15T06:16:38.948Z,115
2016-05-15T06:17:38.967Z,135
2016-05-15T06:18:38.813Z,135
2016-05-15T06:19:38.549Z,120
2016-05-15T06:20:39.022Z,155
2016-05-15T06:21:39.040Z,225
2016-05-15T06:22:39.073Z,335
2016-05-15T06:23:38.920Z,130
2016-05-15T06:24:53.282Z,160
2016-05-15T06:25:39.129Z,160
2016-05-15T06:26:53.178Z,140
2016-05-15T06:27:53.353Z,150
2016-05-15T06:28:39.184Z,170
2016-05-15T06:29:38.904Z,170
2016-05-15T06:30:39.236Z,200
2016-05-15T06:32:39.273Z,205
2016-05-15T06:33:39.290Z,215
2016-05-15T06:34:39.340Z,265
2016-05-15T06:35:39.187Z,310
2016-05-15T06:36:53.392Z,315
2016-05-15T06:37:39.223Z,385
2016-05-15T06:38:39.413Z,1105
2016-05-15T06:39:39.276Z,485
2016-05-15T06:40:39.294Z,1980
2016-05-15T06:41:39.483Z,575
2016-05-15T06:42:39.487Z,585
2016-05-15T06:43:39.521Z,485
2016-05-15T06:44:39.555Z,435
2016-05-15T06:45:39.557Z,620
2016-05-15T06:46:39.436Z,420
2016-05-15T06:47:53.782Z,405
2016-05-15T06:48:39.627Z,1350
2016-05-15T06:49:39.584Z,990
2016-05-15T06:50:39.680Z,1370
2016-05-15T06:51:39.698Z,1365
2016-05-15T06:52:53.748Z,2320
2016-05-15T06:53:39.751Z,2155
2016-05-15T06:54:39.769Z,630
2016-05-15T06:55:39.631Z,475
2016-05-15T06:56:39.806Z,395
2016-05-15T06:57:39.840Z,305
2016-05-15T06:58:39.701Z,260
2016-05-15T06:59:39.720Z,230
2016-05-15T07:00:39.770Z,230
2016-05-15T07:01:54.116Z,335
2016-05-15T07:02:54.150Z,405
2016-05-15T07:03:39.825Z,985
2016-05-15T07:04:39.937Z,595
2016-05-15T07:05:39.876Z,290
2016-05-15T07:06:54.253Z,855
2016-05-15T07:07:39.914Z,1630
2016-05-15T07:08:54.291Z,455
2016-05-15T07:09:40.122Z,460
2016-05-15T07:10:40.014Z,425
2016-05-15T07:11:40.175Z,435
2016-05-15T07:12:40.208Z,500
2016-05-15T07:13:40.210Z,1920
2016-05-15T07:14:40.245Z,350
2016-05-15T07:15:54.450Z,330
2016-05-15T07:16:40.156Z,840
2016-05-15T07:17:40.316Z,545
2016-05-15T07:18:40.193Z,535
2016-05-15T07:19:54.555Z,1290
2016-05-15T07:20:40.385Z,1550
2016-05-15T07:21:40.419Z,490
2016-05-15T07:22:40.282Z,445
2016-05-15T07:23:40.472Z,1915
2016-05-15T07:24:54.521Z,1640
2016-05-15T07:25:40.352Z,595
2016-05-15T07:26:40.527Z,385
2016-05-15T07:27:40.560Z,910
2016-05-15T07:28:40.438Z,950
2016-05-15T07:29:40.441Z,405
2016-05-15T07:30:54.507Z,400
2016-05-15T07:31:40.493Z,755
2016-05-15T07:32:54.856Z,1700
2016-05-15T07:33:40.546Z,1260
2016-05-15T07:34:54.595Z,1820
2016-05-15T07:35:40.597Z,1840
2016-05-15T07:36:54.960Z,1670
2016-05-15T07:37:54.822Z,1275
2016-05-15T07:38:55.017Z,1345
2016-05-15T07:39:54.938Z,1720
2016-05-15T07:40:40.985Z,655
2016-05-15T07:41:41.045Z,1845
2016-05-15T07:42:41.123Z,1570
2016-05-15T07:43:41.188Z,915
2016-05-15T07:44:41.206Z,450
2016-05-15T07:45:41.272Z,440
2016-05-15T07:46:41.305Z,1870
2016-05-15T07:47:41.355Z,590
2016-05-15T07:49:41.205Z,555
2016-05-15T07:50:41.447Z,1935
2016-05-15T07:51:42.158Z,1735
2016-05-15T07:52:41.511Z,760
2016-05-15T07:53:47.048Z,1360
2016-05-15T07:54:41.568Z,1180
2016-05-15T07:55:55.635Z,1465
2016-05-15T07:56:41.608Z,1375
2016-05-15T07:57:41.644Z,1400
2016-05-15T07:58:41.680Z,1445
2016-05-15T08:00:41.733Z,795
2016-05-15T08:01:41.768Z,1445
2016-05-15T08:02:41.787Z,1725
2016-05-15T08:03:41.837Z,1265
2016-05-15T08:04:41.731Z,1745
2016-05-15T08:05:41.874Z,1825
2016-05-15T08:06:41.910Z,770
2016-05-15T08:07:41.913Z,1575
2016-05-15T08:08:41.805Z,490
2016-05-15T08:09:41.809Z,1660
2016-05-15T08:10:42.014Z,1625
2016-05-15T08:12:41.910Z,475
2016-05-15T08:13:56.116Z,660
2016-05-15T08:14:42.119Z,920
2016-05-15T08:15:56.324Z,455
2016-05-15T08:16:42.171Z,1505
2016-05-15T08:17:56.393Z,1470
2016-05-15T08:18:42.223Z,615
2016-05-15T08:19:42.117Z,425
2016-05-15T08:20:42.276Z,410
2016-05-15T08:21:56.498Z,1730
2016-05-15T08:23:42.393Z,435
2016-05-15T08:25:42.414Z,385
2016-05-15T08:26:56.479Z,400
2016-05-15T08:27:56.653Z,750
2016-05-15T08:28:56.548Z,455
2016-05-15T08:29:42.519Z,460
2016-05-15T08:30:42.552Z,455
2016-05-15T08:31:42.586Z,1505
2016-05-15T08:32:42.605Z,680
2016-05-15T08:33:42.467Z,1245
2016-05-15T08:34:56.938Z,420
2016-05-15T08:35:42.536Z,360
2016-05-15T08:36:56.881Z,380
2016-05-15T08:37:42.743Z,1220
2016-05-15T08:38:56.794Z,475
2016-05-15T08:39:56.811Z,450
2016-05-15T08:40:42.673Z,530
2016-05-15T08:41:42.832Z,855
2016-05-15T08:42:57.054Z,925
2016-05-15T08:44:42.762Z,395
2016-05-15T08:45:42.796Z,1045
2016-05-15T08:46:42.830Z,800
2016-05-15T08:47:43.004Z,435
2016-05-15T08:48:42.866Z,1245
2016-05-15T08:49:43.057Z,1240
2016-05-15T08:50:57.279Z,1290
2016-05-15T08:51:57.281Z,1295
2016-05-15T08:52:57.315Z,1300
2016-05-15T08:53:57.333Z,1065
2016-05-15T08:54:43.023Z,880
2016-05-15T08:55:43.198Z,775
2016-05-15T08:56:43.232Z,760
2016-05-15T08:57:43.265Z,750
2016-05-15T08:58:42.972Z,770
2016-05-15T08:59:57.490Z,800
2016-05-15T09:00:57.367Z,445
2016-05-15T09:01:57.558Z,745
2016-05-15T09:02:43.389Z,730
2016-05-15T09:03:43.422Z,410
2016-05-15T09:04:44.082Z,695
2016-05-15T09:05:43.475Z,685
2016-05-15T09:06:43.508Z,710
2016-05-15T09:07:43.527Z,415
2016-05-15T09:08:43.560Z,695
2016-05-15T09:10:57.801Z,695
2016-05-15T09:11:43.491Z,435
2016-05-15T09:12:43.524Z,420
2016-05-15T09:13:43.231Z,600
2016-05-15T09:14:57.905Z,420
2016-05-15T09:15:43.595Z,360
2016-05-15T09:16:43.770Z,285
2016-05-15T09:17:43.805Z,230
2016-05-15T09:18:43.854Z,185
2016-05-15T09:19:44.231Z,160
2016-05-15T09:20:43.734Z,155
2016-05-15T09:21:43.923Z,125
2016-05-15T09:22:43.943Z,95
2016-05-15T09:23:43.820Z,70
2016-05-15T09:24:58.182Z,65
2016-05-15T09:25:44.029Z,60
2016-05-15T09:26:43.890Z,60
2016-05-15T09:27:44.081Z,55
2016-05-15T09:28:44.099Z,55
2016-05-15T09:29:43.976Z,50
2016-05-15T09:31:44.170Z,45
2016-05-15T09:32:44.203Z,45
2016-05-15T09:33:44.237Z,45
2016-05-15T09:34:44.412Z,55
2016-05-15T09:35:44.274Z,65
2016-05-15T09:36:44.167Z,75
2016-05-15T09:37:44.327Z,95
2016-05-15T09:38:44.345Z,115
2016-05-15T09:39:58.566Z,140
2016-05-15T09:40:58.428Z,175
2016-05-15T09:41:44.431Z,220
2016-05-15T09:42:58.652Z,285
2016-05-15T09:43:44.499Z,325
2016-05-15T09:44:44.204Z,490
2016-05-15T09:47:12.929Z,475
2016-05-15T09:47:44.572Z,480
2016-05-15T09:48:44.590Z,450
2016-05-15T09:49:45.218Z,425
2016-05-15T09:50:44.643Z,405
2016-05-15T09:51:58.849Z,360
2016-05-15T09:52:44.710Z,350
2016-05-15T09:53:58.901Z,365
2016-05-15T09:54:44.575Z,375
2016-05-15T09:55:44.781Z,355
2016-05-15T09:56:44.643Z,310
2016-05-15T09:57:59.005Z,285
2016-05-15T09:58:44.837Z,290
2016-05-15T09:59:44.854Z,335
2016-05-15T10:00:44.576Z,460
2016-05-15T10:01:44.781Z,485
2016-05-15T10:02:59.128Z,495
2016-05-15T10:03:44.959Z,490
2016-05-15T10:04:59.555Z,480
2016-05-15T10:05:45.011Z,475
2016-05-15T10:07:44.595Z,455
2016-05-15T10:08:44.925Z,480
2016-05-15T10:09:45.099Z,455
2016-05-15T10:10:45.149Z,400
2016-05-15T10:11:59.340Z,325
2016-05-15T10:12:59.202Z,300
2016-05-15T10:13:45.204Z,285
2016-05-15T10:14:45.239Z,345
2016-05-15T10:15:45.241Z,435
2016-05-15T10:16:45.291Z,485
2016-05-15T10:17:45.293Z,365
2016-05-15T10:18:59.500Z,315
2016-05-15T10:19:45.236Z,285
2016-05-15T10:20:45.380Z,250
2016-05-15T10:21:59.429Z,225
2016-05-15T10:22:45.415Z,225
2016-05-15T10:23:45.435Z,225
2016-05-15T10:24:45.312Z,235
2016-05-15T10:25:45.331Z,255
2016-05-15T10:26:45.520Z,285
2016-05-15T10:27:59.757Z,320
2016-05-15T10:28:59.932Z,335
2016-05-15T10:29:45.607Z,360
2016-05-15T10:30:45.609Z,400
2016-05-15T10:31:45.722Z,415
2016-05-15T10:32:45.662Z,420
2016-05-15T10:33:45.524Z,410
2016-05-15T10:34:59.761Z,435
2016-05-15T10:35:45.732Z,430
2016-05-15T10:36:45.751Z,420
2016-05-15T10:37:45.614Z,405
2016-05-15T10:39:00.006Z,390
2016-05-15T10:40:00.008Z,380
2016-05-15T10:40:45.856Z,375
2016-05-15T10:42:00.061Z,365
2016-05-15T10:42:45.752Z,365
2016-05-15T10:43:45.769Z,365
2016-05-15T10:44:45.944Z,360
2016-05-15T10:46:45.856Z,370
2016-05-15T10:47:46.030Z,325
2016-05-15T10:48:46.064Z,395
2016-05-15T10:50:00.488Z,265
2016-05-15T10:50:45.945Z,250
2016-05-15T10:51:45.963Z,225
2016-05-15T10:53:00.324Z,185
2016-05-15T10:53:46.187Z,165
2016-05-15T10:54:46.189Z,160
2016-05-15T10:56:00.396Z,155
2016-05-15T10:56:46.242Z,170
2016-05-15T10:57:46.276Z,255
2016-05-15T10:58:46.122Z,335
2016-05-15T10:59:46.313Z,385
2016-05-15T11:00:46.346Z,440
2016-05-15T11:01:46.365Z,355
2016-05-15T11:02:46.414Z,430
2016-05-15T11:03:46.402Z,485
2016-05-15T11:05:00.638Z,395
2016-05-15T11:05:46.470Z,370
2016-05-15T11:06:46.487Z,370
2016-05-15T11:07:46.506Z,380
2016-05-15T11:08:46.524Z,435
2016-05-15T11:10:00.746Z,515
2016-05-15T11:10:46.592Z,475
2016-05-15T11:12:46.628Z,405
2016-05-15T11:14:00.835Z,455
2016-05-15T11:14:46.680Z,405
2016-05-15T11:16:15.059Z,415
2016-05-15T11:16:46.577Z,400
2016-05-15T11:17:46.596Z,425
2016-05-15T11:19:46.929Z,490
2016-05-15T11:20:46.822Z,455
2016-05-15T11:22:01.027Z,460
2016-05-15T11:22:46.874Z,415
2016-05-15T11:23:59.471Z,375
2016-05-15T11:24:46.926Z,380
2016-05-15T11:26:01.132Z,350
2016-05-15T11:26:46.979Z,370
2016-05-15T11:27:46.840Z,385
2016-05-15T11:29:01.046Z,390
2016-05-15T11:29:47.065Z,325
2016-05-15T11:31:01.256Z,325
2016-05-15T11:32:01.273Z,305
2016-05-15T11:32:47.120Z,295
2016-05-15T11:33:47.139Z,275
2016-05-15T11:34:46.876Z,275
2016-05-15T11:35:47.034Z,270
2016-05-15T11:37:01.084Z,265
2016-05-15T11:38:47.105Z,265
2016-05-15T11:39:47.123Z,260
2016-05-15T11:40:47.173Z,270
2016-05-15T11:41:47.347Z,235
2016-05-15T11:43:01.600Z,280
2016-05-15T11:43:47.227Z,275
2016-05-15T11:44:47.262Z,290
2016-05-15T11:45:47.467Z,315
2016-05-15T11:46:47.314Z,300
2016-05-15T11:47:47.488Z,295
2016-05-15T11:48:47.507Z,285
2016-05-15T11:50:01.587Z,300
2016-05-15T11:50:47.575Z,285
2016-05-15T11:51:47.577Z,310
2016-05-15T11:52:47.611Z,310
2016-05-15T11:54:02.082Z,285
2016-05-15T11:54:47.757Z,285
2016-05-15T11:55:47.697Z,260
2016-05-15T11:56:47.544Z,250
2016-05-15T11:58:47.596Z,320
2016-05-15T11:59:47.786Z,250
2016-05-15T12:00:47.648Z,235
2016-05-15T12:01:47.839Z,225
2016-05-15T12:03:47.891Z,300
2016-05-15T12:04:48.222Z,305
2016-05-15T12:05:47.928Z,310
2016-05-15T12:07:02.133Z,285
2016-05-15T12:07:47.980Z,320
2016-05-15T12:09:02.186Z,260
2016-05-15T12:10:02.204Z,225
2016-05-15T12:10:48.066Z,240
2016-05-15T12:11:48.084Z,215
2016-05-15T12:12:48.103Z,275
2016-05-15T12:14:02.309Z,270
2016-05-15T12:14:47.999Z,265
2016-05-15T12:15:47.861Z,265
2016-05-15T12:16:48.207Z,260
2016-05-15T12:18:16.585Z,250
2016-05-15T12:18:48.274Z,255
2016-05-15T12:19:48.355Z,260
2016-05-15T12:20:48.141Z,260
2016-05-15T12:22:02.502Z,250
2016-05-15T12:22:48.333Z,245
2016-05-15T12:23:48.226Z,250
2016-05-15T12:25:02.572Z,200
2016-05-15T12:26:02.606Z,200
2016-05-15T12:27:02.625Z,195
2016-05-15T12:27:48.455Z,185
2016-05-15T12:28:48.490Z,190
2016-05-15T12:29:48.523Z,195
2016-05-15T12:30:48.557Z,295
2016-05-15T12:31:48.420Z,265
2016-05-15T12:32:48.610Z,270
2016-05-15T12:33:48.612Z,225
2016-05-15T12:34:48.334Z,300
2016-05-15T12:35:48.680Z,315
2016-05-15T12:37:02.870Z,315
2016-05-15T12:37:48.717Z,300
2016-05-15T12:38:48.423Z,300
2016-05-15T12:39:48.770Z,305
2016-05-15T12:40:48.631Z,235
2016-05-15T12:41:48.806Z,300
2016-05-15T12:42:48.683Z,225
2016-05-15T12:43:48.858Z,220
2016-05-15T12:45:02.907Z,285
2016-05-15T12:45:48.754Z,285
2016-05-15T12:46:48.944Z,290
2016-05-15T12:47:48.947Z,300
2016-05-15T12:48:48.825Z,325
2016-05-15T12:49:49.046Z,325
2016-05-15T12:50:49.033Z,315
2016-05-15T12:52:03.238Z,240
2016-05-15T12:53:03.101Z,310
2016-05-15T12:53:49.088Z,315
2016-05-15T12:55:03.153Z,315
2016-05-15T12:55:48.984Z,305
2016-05-15T12:57:03.362Z,295
2016-05-15T12:57:49.193Z,300
2016-05-15T12:59:03.258Z,305
2016-05-15T13:00:03.432Z,310
2016-05-15T13:01:03.154Z,350
2016-05-15T13:02:03.468Z,340
2016-05-15T13:02:49.174Z,345
2016-05-15T13:04:03.520Z,320
2016-05-15T13:04:49.368Z,335
2016-05-15T13:06:17.761Z,335
2016-05-15T13:06:49.435Z,245
2016-05-15T13:08:03.469Z,345
2016-05-15T13:08:49.456Z,365
2016-05-15T13:10:03.536Z,280
2016-05-15T13:11:03.727Z,335
2016-05-15T13:11:49.543Z,265
2016-05-15T13:13:03.764Z,305
2016-05-15T13:13:49.595Z,360
2016-05-15T13:15:03.800Z,365
2016-05-15T13:15:49.491Z,350
2016-05-15T13:17:03.853Z,260
2016-05-15T13:17:49.528Z,265
2016-05-15T13:19:03.733Z,260
2016-05-15T13:20:04.502Z,245
2016-05-15T13:20:49.769Z,250
2016-05-15T13:22:03.975Z,245
2016-05-15T13:22:49.666Z,230
2016-05-15T13:24:49.719Z,210
2016-05-15T13:25:49.611Z,200
2016-05-15T13:26:49.910Z,190
2016-05-15T13:27:49.945Z,170
2016-05-15T13:29:04.151Z,125
2016-05-15T13:30:04.012Z,85
2016-05-15T13:31:49.721Z,55
2016-05-15T13:32:50.052Z,45
2016-05-15T13:33:50.086Z,45
2016-05-15T13:34:49.979Z,45
2016-05-15T13:35:50.138Z,50
2016-05-15T13:36:50.140Z,60
2016-05-15T13:38:18.534Z,70
2016-05-15T13:40:50.089Z,90
2016-05-15T13:41:50.264Z,100
2016-05-15T13:42:50.141Z,105
2016-05-15T13:43:50.317Z,115
2016-05-15T13:45:04.366Z,125
2016-05-15T13:45:50.369Z,135
2016-05-15T13:46:50.231Z,150
2016-05-15T13:47:50.420Z,170
2016-05-15T13:48:50.283Z,215
2016-05-15T13:49:51.363Z,255
2016-05-15T13:50:50.803Z,310
2016-05-15T13:51:50.353Z,350
2016-05-15T13:53:04.558Z,375
2016-05-15T13:53:50.405Z,320
2016-05-15T13:55:51.223Z,275
2016-05-15T13:56:50.632Z,270
2016-05-15T13:57:50.494Z,260
2016-05-15T13:58:50.529Z,245
2016-05-15T14:00:04.875Z,220
2016-05-15T14:01:05.674Z,170
2016-05-15T14:01:50.740Z,135
2016-05-15T14:03:50.807Z,70
2016-05-15T14:04:51.481Z,55
2016-05-15T14:05:50.688Z,40
2016-05-15T14:06:50.863Z,35
2016-05-15T14:08:50.759Z,35
2016-05-15T14:09:50.948Z,40
2016-05-15T14:11:05.139Z,45
2016-05-15T14:11:50.673Z,50
2016-05-15T14:12:50.847Z,65
2016-05-15T14:13:51.037Z,80
2016-05-15T14:14:51.056Z,95
2016-05-15T14:15:51.075Z,100
2016-05-15T14:16:51.108Z,100
2016-05-15T14:17:51.142Z,105
2016-05-15T14:18:50.988Z,105
2016-05-15T14:19:52.178Z,115
2016-05-15T14:21:05.383Z,135
2016-05-15T14:21:50.918Z,150
2016-05-15T14:22:51.234Z,180
2016-05-15T14:23:51.111Z,205
2016-05-15T14:24:51.286Z,225
2016-05-15T14:25:51.304Z,240
2016-05-15T14:26:51.338Z,255
2016-05-15T14:28:05.543Z,280
2016-05-15T14:28:51.390Z,290
2016-05-15T14:29:51.408Z,305
2016-05-15T14:30:51.426Z,310
2016-05-15T14:32:05.633Z,315
2016-05-15T14:32:51.308Z,320
2016-05-15T14:33:51.498Z,320
2016-05-15T14:35:05.562Z,305
2016-05-15T14:36:05.721Z,295
2016-05-15T14:36:51.583Z,290
2016-05-15T14:37:51.445Z,280
2016-05-15T14:38:51.637Z,275
2016-05-15T14:39:51.639Z,260
2016-05-15T14:41:51.534Z,245
2016-05-15T14:42:51.693Z,240
2016-05-15T14:43:51.728Z,235
2016-05-15T14:44:51.745Z,230
2016-05-15T14:45:51.623Z,225
2016-05-15T14:46:51.797Z,225
2016-05-15T14:48:05.848Z,195
2016-05-15T14:49:06.039Z,220
2016-05-15T14:50:06.337Z,205
2016-05-15T14:50:51.731Z,195
2016-05-15T14:51:51.921Z,215
2016-05-15T14:53:06.126Z,225
2016-05-15T14:54:06.144Z,235
2016-05-15T14:54:51.991Z,230
2016-05-15T14:55:52.025Z,220
2016-05-15T14:56:51.731Z,200
2016-05-15T14:57:52.077Z,145